Niter, Idaho
Current Conditions -  °F | °C
As of 11:35 PM on Monday 20 Oct 2014 (Local Time) from KAFO Reporting Station
Scattered Clouds Scattered Clouds  
Wind Chill: 41°   Ceiling: Unl
Heat Index: 41°   Visibility: 10mi
Dew Point: 34°   Wind: 0mph
Humidity: 76%   Direction: NA
Pressure: 30.01"   Gusts: NA
Location:  42.5232°N, 111.761°W
Report Text: KAFO 210535Z AUTO 00000KT 10SM SCT095 05/01 A3001 RMK AO2
Loading
Personal Weather Stations






























Interactive Weather Map New forecast layout! Learn more

10-Day Weather Forecast

Advertisements
Track Severe Weather on mobile